Flugplatz Leipzig Halle

Bericht für EDDP

vom 23.08. um 12:50 UTC

Wind 6 kt aus 30°

Sichtweite 10 km oder mehr

gute Sicht, keine Wolken < 5000 ft, keine CB, keine Wettererscheinungen (CAVOK)

Temperatur 28.0°C

Taupunkt 7.0°C

Luftfeuchtigkeit 27%

Luftdruck 1025 hPa

keine wesentliche Wetteränderung innerhalb den nächsten 2 Stunden zu erwarten

EDDP 231250Z 03006KT 330V140 CAVOK 28/07 Q1025 NOSIG

Prognose für EDDP

vom 23.08. um 00:00 UTC

Zwischen 00:00 UTC und 00:00 UTC

Wind 6 kt aus 80°

Sichtweite 10 km oder mehr

keine signifikanten Wettererscheinungen

keine Wolken

TAF EDDP 231100Z 2312/2412 08006KT CAVOK
Impressum